Time;durP1;ratioP1;P1;durP2;ratioP2;P2;SDS_P1;SDS_P2;PMS_P1;PMS_P2;Temp;Humidity;BMP_temperature;BMP_pressure;BME280_temperature;BME280_humidity;BME280_pressure;Samples;Min_cycle;Max_cycle;Signal;HPM_P1;HPM_P2
2022/06/17 00:07:14;;;;;;;3.57;1.20;;;;;;;18.66;50.91;101043.09;20816920;28;20053;-71
2022/06/17 00:17:16;;;;;;;3.65;1.13;;;;;;;18.63;51.46;101043.19;20817439;28;20645;-72
2022/06/17 00:27:18;;;;;;;3.20;1.38;;;;;;;18.37;53.52;101046.88;20816316;28;20601;-71
2022/06/17 00:37:19;;;;;;;3.88;1.15;;;;;;;18.13;55.02;101064.53;20822849;28;20049;-71
2022/06/17 00:47:34;;;;;;;5.95;1.35;;;;;;;18.02;56.03;101061.44;20831829;28;20075;-72
2022/06/17 00:57:39;;;;;;;2.95;1.25;;;;;;;17.85;57.83;101047.91;20831539;28;20111;-71
2022/06/17 01:07:49;;;;;;;3.05;1.10;;;;;;;17.46;60.71;101048.34;20831100;28;20111;-71
2022/06/17 01:17:51;;;;;;;5.80;1.60;;;;;;;17.28;63.03;101051.59;20830183;28;20045;-70
2022/06/17 01:27:56;;;;;;;5.78;1.30;;;;;;;17.37;63.37;101051.28;20829677;28;20057;-71
2022/06/17 01:37:58;;;;;;;;;;;;;;;17.27;64.17;101060.44;20827804;28;20063;-71
2022/06/17 01:48:00;;;;;;;4.80;1.63;;;;;;;17.18;66.46;101062.47;20827062;28;19921;-71
2022/06/17 01:58:08;;;;;;;3.35;1.30;;;;;;;16.61;71.78;101052.78;20827261;28;20057;-71
2022/06/17 02:08:10;;;;;;;4.90;1.60;;;;;;;16.45;73.66;101045.38;20825743;28;20049;-69
2022/06/17 02:18:17;;;;;;;5.85;1.90;;;;;;;16.24;74.54;101060.03;20825754;28;20046;-71
2022/06/17 02:28:20;;;;;;;3.28;1.50;;;;;;;16.32;73.35;101051.00;20825132;28;20092;-71
2022/06/17 02:38:26;;;;;;;3.95;1.48;;;;;;;16.33;74.91;101054.50;20824223;28;20541;-70
2022/06/17 02:48:43;;;;;;;4.53;1.75;;;;;;;16.06;77.14;101059.69;20823929;28;20053;-72
2022/06/17 02:58:57;;;;;;;4.07;1.65;;;;;;;15.63;80.33;101067.84;20821042;28;20057;-73
2022/06/17 03:09:14;;;;;;;3.35;1.52;;;;;;;15.47;81.63;101072.63;20821322;28;20049;-73
2022/06/17 03:19:16;;;;;;;5.13;1.60;;;;;;;15.37;82.43;101073.78;20820995;28;20445;-72
2022/06/17 03:29:20;;;;;;;4.78;2.03;;;;;;;15.33;83.79;101069.47;20821112;28;20426;-72
2022/06/17 03:39:28;;;;;;;6.20;2.10;;;;;;;15.46;82.47;101094.66;20817691;28;20053;-72
2022/06/17 03:49:41;;;;;;;4.28;1.75;;;;;;;15.09;85.38;101116.66;20818300;28;20045;-72
2022/06/17 03:59:47;;;;;;;4.00;1.75;;;;;;;15.00;84.96;101137.97;20818827;28;20053;-74
2022/06/17 04:09:51;;;;;;;5.20;2.20;;;;;;;15.18;82.96;101122.59;20817416;28;20045;-72
2022/06/17 04:20:23;;;;;;;4.33;1.90;;;;;;;15.45;81.36;101127.25;20817136;28;20505;-72
2022/06/17 04:30:36;;;;;;;4.15;1.90;;;;;;;15.68;80.18;101128.50;20816183;28;20418;-72
2022/06/17 04:40:50;;;;;;;5.70;2.03;;;;;;;17.28;70.87;101125.69;20817320;28;20057;-72
2022/06/17 04:50:52;;;;;;;7.82;2.42;;;;;;;17.68;68.65;101146.47;20815342;28;20490;-72
2022/06/17 05:00:55;;;;;;;7.20;2.17;;;;;;;16.91;74.53;101154.19;20815165;28;20409;-72
2022/06/17 05:11:11;;;;;;;5.90;2.08;;;;;;;16.89;76.04;101155.13;20794437;28;20046;-70
2022/06/17 05:21:18;;;;;;;8.63;2.40;;;;;;;17.28;74.75;101157.47;20741512;28;20046;-70
2022/06/17 05:31:24;;;;;;;6.45;2.17;;;;;;;17.57;73.88;101167.97;20746312;28;20081;-70
2022/06/17 05:41:26;;;;;;;5.93;2.45;;;;;;;17.75;72.38;101171.00;20746140;28;20124;-70
2022/06/17 05:51:28;;;;;;;6.30;2.53;;;;;;;18.02;71.31;101178.03;20745016;28;20046;-70
2022/06/17 06:01:29;;;;;;;8.07;3.22;;;;;;;18.15;70.92;101174.00;20744236;28;20050;-70
2022/06/17 06:11:30;;;;;;;7.50;2.28;;;;;;;18.52;69.15;101163.88;20743865;28;20115;-70
2022/06/17 06:21:32;;;;;;;5.30;2.50;;;;;;;18.93;68.17;101167.69;20741801;28;20050;-70
2022/06/17 06:31:36;;;;;;;7.80;2.75;;;;;;;19.11;67.69;101169.63;20759802;28;20046;-70
2022/06/17 06:41:37;;;;;;;5.40;2.37;;;;;;;19.55;62.41;101167.00;20780464;28;20053;-70
2022/06/17 06:51:39;;;;;;;4.40;1.90;;;;;;;19.65;59.38;101168.41;20740225;28;20046;-70
2022/06/17 07:01:40;;;;;;;8.50;3.08;;;;;;;20.09;57.39;101168.31;20762508;28;20567;-69
2022/06/17 07:11:42;;;;;;;6.97;1.85;;;;;;;20.41;53.88;101169.56;20770694;28;20049;-69
2022/06/17 07:21:43;;;;;;;4.22;1.40;;;;;;;20.70;54.56;101165.63;20769821;28;20046;-69
2022/06/17 07:31:45;;;;;;;11.20;2.03;;;;;;;21.07;54.86;101182.53;20791041;28;20104;-69
2022/06/17 07:41:50;;;;;;;5.03;2.00;;;;;;;21.37;52.74;101163.44;20793922;28;20053;-69
2022/06/17 07:51:51;;;;;;;3.65;1.40;;;;;;;21.35;55.48;101160.81;20809312;28;20087;-70
2022/06/17 08:01:53;;;;;;;4.63;1.33;;;;;;;21.70;54.12;101166.22;20812686;28;20057;-69
2022/06/17 08:11:55;;;;;;;3.83;1.60;;;;;;;22.31;52.62;101148.91;20791990;28;20096;-69
2022/06/17 08:21:57;;;;;;;4.57;1.50;;;;;;;22.55;50.16;101147.63;20730915;28;20042;-69
2022/06/17 08:32:45;;;;;;;2.60;1.48;;;;;;;23.01;50.76;101146.00;20727490;28;20050;-68
2022/06/17 08:42:36;;;;;;;4.60;1.80;;;;;;;22.98;50.66;101146.16;20727618;28;20046;-69
2022/06/17 08:52:56;;;;;;;8.77;1.63;;;;;;;23.09;51.16;101132.19;20726514;28;20553;-69
2022/06/17 09:03:18;;;;;;;7.18;1.55;;;;;;;23.66;47.66;101132.50;20812311;28;20050;-69
2022/06/17 09:13:32;;;;;;;5.43;2.10;;;;;;;23.91;45.56;101136.44;20824296;28;20053;-69
2022/06/17 09:23:38;;;;;;;4.37;1.70;;;;;;;24.17;41.68;101138.38;20823337;28;20046;-70
2022/06/17 09:33:58;;;;;;;4.70;2.17;;;;;;;24.53;41.43;101127.28;20821360;28;20494;-71
2022/06/17 09:44:08;;;;;;;4.68;1.50;;;;;;;25.55;39.48;101113.56;20820738;28;20079;-71
2022/06/17 09:54:25;;;;;;;3.95;1.52;;;;;;;25.04;41.01;101118.66;20820490;28;20505;-71
2022/06/17 10:04:26;;;;;;;4.72;1.55;;;;;;;25.10;39.53;101130.84;20818762;28;20395;-72
2022/06/17 10:14:37;;;;;;;4.75;1.70;;;;;;;25.67;36.71;101112.72;20776345;28;20418;-72
2022/06/17 10:24:58;;;;;;;2.72;1.25;;;;;;;25.97;38.50;101108.97;20735946;28;20056;-71
2022/06/17 10:35:03;;;;;;;4.05;1.40;;;;;;;25.65;35.98;101109.28;20734383;28;20100;-71
2022/06/17 10:45:12;;;;;;;5.68;1.70;;;;;;;25.86;35.90;101106.13;20734650;28;20046;-71
2022/06/17 10:55:48;;;;;;;5.75;1.50;;;;;;;26.05;35.40;101096.72;20751960;28;20140;-72
2022/06/17 11:05:58;;;;;;;5.07;1.38;;;;;;;26.38;36.33;101102.50;20739304;28;20570;-71
2022/06/17 11:16:00;;;;;;;4.82;1.45;;;;;;;26.16;33.29;101093.28;20786903;28;20057;-71
2022/06/17 11:26:10;;;;;;;5.28;1.40;;;;;;;26.68;34.11;101081.53;20813789;28;20095;-72
2022/06/17 11:36:19;;;;;;;4.47;1.15;;;;;;;26.67;30.54;101066.38;20812377;28;20060;-71
2022/06/17 11:46:24;;;;;;;4.57;1.00;;;;;;;27.13;30.69;101049.59;20812694;28;20505;-71
2022/06/17 11:56:38;;;;;;;4.50;1.30;;;;;;;27.48;31.52;101038.00;20811184;28;20052;-71
2022/06/17 12:06:46;;;;;;;4.30;1.20;;;;;;;26.99;31.29;101022.88;20810262;28;20136;-71
2022/06/17 12:16:48;;;;;;;2.80;0.95;;;;;;;27.37;29.96;101011.94;20749882;28;20491;-71
2022/06/17 12:27:30;;;;;;;5.22;1.20;;;;;;;27.59;28.76;100994.97;20729213;28;20125;-71
2022/06/17 12:38:05;;;;;;;1.98;0.90;;;;;;;27.63;30.38;100991.09;20744825;28;20084;-72
2022/06/17 12:48:22;;;;;;;3.80;1.00;;;;;;;27.75;28.74;100973.16;20761586;28;20179;-72
2022/06/17 12:58:35;;;;;;;3.85;1.10;;;;;;;27.78;29.13;100976.44;20789982;28;20517;-71
2022/06/17 13:08:47;;;;;;;5.95;1.55;;;;;;;27.85;29.73;100966.94;20755098;28;20120;-71
2022/06/17 13:19:14;;;;;;;7.38;1.25;;;;;;;27.97;26.37;100950.78;20811029;28;20049;-70
2022/06/17 13:29:46;;;;;;;4.95;1.27;;;;;;;28.19;25.67;100934.59;20741360;28;20041;-71
2022/06/17 13:39:57;;;;;;;2.53;1.00;;;;;;;28.68;26.15;100933.28;20738221;28;20110;-71
2022/06/17 13:50:39;;;;;;;4.45;1.00;;;;;;;28.60;26.27;100903.44;20738877;28;20503;-71
2022/06/17 14:00:47;;;;;;;2.28;1.00;;;;;;;29.03;23.79;100886.34;20719685;28;20042;-71
2022/06/17 14:21:34;;;;;;;2.28;0.70;;;;;;;29.13;22.73;100898.09;20817899;28;20119;-69
2022/06/17 14:31:37;;;;;;;1.85;0.70;;;;;;;29.53;22.65;100910.81;20817545;28;20041;-69
2022/06/17 14:52:19;;;;;;;3.22;0.60;;;;;;;29.34;21.77;100915.09;20814611;28;20312;-75
2022/06/17 15:02:38;;;;;;;2.17;0.80;;;;;;;29.71;21.67;100906.53;20812809;28;20053;-70
2022/06/17 15:12:47;;;;;;;2.10;0.90;;;;;;;30.02;21.77;100907.34;20786910;28;20060;-69
2022/06/17 15:23:02;;;;;;;1.83;0.70;;;;;;;30.03;23.10;100895.53;20731419;28;20281;-70
2022/06/17 15:33:25;;;;;;;3.03;0.82;;;;;;;30.38;22.10;100876.19;20712705;28;20537;-71
2022/06/17 15:43:32;;;;;;;1.95;0.85;;;;;;;30.28;21.86;100859.13;20728930;28;20063;-70
2022/06/17 15:53:38;;;;;;;2.42;1.08;;;;;;;30.60;23.44;100857.97;20729538;28;20050;-70
2022/06/17 16:04:02;;;;;;;3.30;0.90;;;;;;;30.62;21.99;100848.75;20728443;28;20060;-70
2022/06/17 16:14:26;;;;;;;3.85;0.70;;;;;;;30.69;22.75;100842.75;20766811;28;20092;-69
2022/06/17 16:24:49;;;;;;;2.20;0.65;;;;;;;30.78;22.36;100836.53;20809665;28;20049;-70
2022/06/17 16:34:51;;;;;;;2.00;0.90;;;;;;;30.57;21.92;100842.06;20808655;28;20509;-69
2022/06/17 16:44:52;;;;;;;2.07;0.73;;;;;;;30.97;21.66;100825.66;20809388;28;20769;-70
2022/06/17 16:54:54;;;;;;;3.15;1.00;;;;;;;30.91;21.78;100829.81;20807447;28;20509;-70
2022/06/17 17:04:57;;;;;;;3.87;1.10;;;;;;;30.67;22.80;100829.41;20807478;28;20049;-70
2022/06/17 17:14:58;;;;;;;3.00;0.70;;;;;;;30.46;23.34;100842.19;20762772;28;20161;-70
2022/06/17 17:25:29;;;;;;;1.50;0.80;;;;;;;30.02;23.17;100826.31;20741100;28;20308;-70
2022/06/17 17:35:31;;;;;;;32.92;29.75;;;;;;;30.06;23.47;100835.88;20739756;28;20670;-70
2022/06/17 17:45:41;;;;;;;4.50;1.73;;;;;;;29.90;23.97;100840.97;20740515;28;20076;-71
2022/06/17 17:55:43;;;;;;;3.22;0.95;;;;;;;29.47;24.37;100830.41;20805945;28;20394;-74
2022/06/17 18:05:45;;;;;;;6.43;1.90;;;;;;;29.28;24.76;100832.03;20807556;28;20046;-70
2022/06/17 18:15:46;;;;;;;5.40;1.80;;;;;;;28.81;29.79;100831.56;20791076;28;20049;-69
2022/06/17 18:25:48;;;;;;;2.30;0.90;;;;;;;28.06;33.08;100836.97;20817954;28;20049;-70
2022/06/17 18:35:53;;;;;;;5.28;1.50;;;;;;;27.53;34.93;100818.78;20817417;28;20198;-70
2022/06/17 18:45:54;;;;;;;3.13;1.00;;;;;;;27.09;35.82;100816.94;20816152;28;20053;-69
2022/06/17 18:55:56;;;;;;;3.28;1.40;;;;;;;26.55;37.66;100828.25;20815915;28;20115;-70
2022/06/17 19:05:58;;;;;;;3.72;1.23;;;;;;;26.16;38.22;100827.56;20814268;28;20045;-69
2022/06/17 19:26:22;;;;;;;5.07;1.52;;;;;;;25.49;42.14;100825.25;20731108;28;20057;-69
2022/06/17 19:36:24;;;;;;;8.20;2.30;;;;;;;25.18;42.98;100821.19;20730679;28;20466;-71
2022/06/17 19:46:27;;;;;;;11.00;2.15;;;;;;;24.81;45.00;100826.38;20729089;28;20049;-70
2022/06/17 19:56:39;;;;;;;5.43;1.80;;;;;;;24.32;48.89;100840.34;20728077;28;20168;-69
2022/06/17 20:06:41;;;;;;;9.52;2.20;;;;;;;23.99;52.17;100829.19;20727617;28;20049;-69
2022/06/17 20:16:48;;;;;;;3.78;1.80;;;;;;;23.82;53.03;100826.75;20788479;28;20049;-70
2022/06/17 20:26:50;;;;;;;6.37;1.50;;;;;;;23.63;52.91;100843.06;20810474;28;20468;-70
2022/06/17 20:36:56;;;;;;;3.75;1.73;;;;;;;23.16;53.64;100844.22;20808425;28;20140;-70
2022/06/17 21:07:45;;;;;;;7.40;2.05;;;;;;;22.44;57.95;100868.00;20823268;28;20064;-70
2022/06/17 21:17:47;;;;;;;3.60;1.40;;;;;;;21.93;60.82;100866.44;20754511;28;20046;-69
2022/06/17 21:27:51;;;;;;;3.35;1.50;;;;;;;21.58;61.89;100877.22;20740922;28;20072;-70
2022/06/17 21:37:56;;;;;;;;;;;;;;;21.39;62.77;100868.50;20739920;28;20046;-74
2022/06/17 21:47:58;;;;;;;2.57;1.30;;;;;;;21.23;64.17;100849.78;20737991;28;20286;-70
2022/06/17 21:58:00;;;;;;;4.82;1.45;;;;;;;21.18;64.36;100849.16;20738705;28;20057;-71
2022/06/17 22:08:02;;;;;;;4.47;1.75;;;;;;;21.00;66.18;100845.66;20795826;28;20095;-70
2022/06/17 22:18:03;;;;;;;7.20;1.88;;;;;;;20.29;70.97;100852.78;20826243;28;20453;-71
2022/06/17 22:28:09;;;;;;;4.63;1.70;;;;;;;20.09;73.26;100854.59;20825983;28;20099;-70
2022/06/17 22:38:10;;;;;;;6.60;1.90;;;;;;;19.93;74.54;100872.19;20824464;28;20560;-69
2022/06/17 22:48:18;;;;;;;4.90;1.70;;;;;;;19.76;74.96;100856.19;20824449;28;20072;-71
2022/06/17 22:58:22;;;;;;;2.97;1.75;;;;;;;19.69;75.66;100851.19;20824666;28;20054;-70
2022/06/17 23:08:25;;;;;;;3.70;1.80;;;;;;;19.50;77.56;100850.25;20823613;28;20136;-70
2022/06/17 23:28:48;;;;;;;5.75;1.90;;;;;;;19.42;80.68;100858.56;20821077;28;20347;-72
2022/06/17 23:38:51;;;;;;;3.50;1.60;;;;;;;18.97;81.83;100853.47;20820157;28;20676;-71
2022/06/17 23:48:59;;;;;;;3.13;1.90;;;;;;;18.80;83.37;100848.91;20819357;28;20054;-70
2022/06/17 23:59:11;;;;;;;5.43;1.70;;;;;;;18.66;85.10;100857.41;20818780;28;20057;-70
